Eastlake, Michigan
Current Conditions -  °F | °C
As of 5:35 PM on Monday 22 Dec 2014 (Local Time) from KMBL Reporting Station
Clear Clear  
Wind Chill: 27°   Ceiling: Unl
Heat Index: 36°   Visibility: 10mi
Dew Point: 25°   Wind: 13mph
Humidity: 65%   Direction: 110°ESE
Pressure: 29.85"   Gusts: 18mph
Location:  44.24°N, 86.3°W
Report Text: KMBL 222235Z AUTO 11011G16KT 10SM CLR 02/M04 A2985 RMK AO1
Loading
Personal Weather Stations






























Interactive Weather Map New forecast layout! Learn more

10-Day Weather Forecast

Advertisements
Track Severe Weather on mobile